Time;durP1;ratioP1;P1;durP2;ratioP2;P2;SDS_P1;SDS_P2;PMS_P1;PMS_P2;Temp;Humidity;BMP_temperature;BMP_pressure;BME280_temperature;BME280_humidity;BME280_pressure;Samples;Min_cycle;Max_cycle;Signal;HPM_P1;HPM_P2
2022/08/20 00:01:21;;;;;;;10.40;7.90;;;;;;;19.29;96.56;101621.88;5053373;28;20045;-77
2022/08/20 00:03:48;;;;;;;9.95;8.50;;;;;;;19.28;96.54;101620.41;5053045;28;20065;-77
2022/08/20 00:06:21;;;;;;;10.82;9.57;;;;;;;19.25;96.60;101619.38;5037439;28;20054;-77
2022/08/20 00:08:48;;;;;;;10.85;8.48;;;;;;;19.22;96.56;101612.25;5053903;28;20483;-78
2022/08/20 00:11:20;;;;;;;9.48;8.02;;;;;;;19.27;96.74;101616.22;5053765;28;20049;-78
2022/08/20 00:13:51;;;;;;;11.65;8.65;;;;;;;19.27;96.66;101627.75;5055173;28;20091;-77
2022/08/20 00:16:20;;;;;;;10.02;8.70;;;;;;;19.25;96.78;101622.09;5053283;28;20069;-77
2022/08/20 00:18:46;;;;;;;11.70;9.07;;;;;;;19.25;96.82;101613.25;5053243;28;20450;-77
2022/08/20 00:21:16;;;;;;;11.95;9.18;;;;;;;19.25;96.97;101610.56;5053924;28;20057;-77
2022/08/20 00:23:47;;;;;;;10.68;8.88;;;;;;;19.27;96.71;101613.50;5053166;28;20049;-77
2022/08/20 00:26:16;;;;;;;14.13;9.10;;;;;;;19.26;96.47;101614.72;5036821;28;20104;-77
2022/08/20 00:28:42;;;;;;;9.73;8.45;;;;;;;19.23;96.68;101611.03;5054693;28;20048;-77
2022/08/20 00:31:13;;;;;;;8.95;8.05;;;;;;;19.24;96.22;101619.88;5052337;28;20490;-77
2022/08/20 00:33:39;;;;;;;10.93;9.00;;;;;;;19.25;96.99;101615.94;5053232;28;20530;-77
2022/08/20 00:36:08;;;;;;;13.82;8.73;;;;;;;19.24;97.02;101617.16;5022480;28;20049;-77
2022/08/20 00:38:36;;;;;;;9.30;8.30;;;;;;;19.24;96.95;101617.16;5032548;28;20050;-77
2022/08/20 00:41:04;;;;;;;9.15;8.25;;;;;;;19.23;96.93;101613.72;5015099;28;20166;-77
2022/08/20 00:43:46;;;;;;;8.70;7.85;;;;;;;19.22;96.66;101623.03;5033917;28;20396;-78
2022/08/20 00:46:23;;;;;;;11.95;8.18;;;;;;;19.21;96.71;101623.53;5032043;28;20045;-77
2022/08/20 00:48:58;;;;;;;11.77;7.93;;;;;;;19.19;97.24;101609.78;5034272;28;20049;-78
2022/08/20 00:51:43;;;;;;;9.13;8.13;;;;;;;19.17;97.23;101626.47;5033862;28;20496;-78
2022/08/20 00:54:21;;;;;;;12.77;8.38;;;;;;;19.10;97.57;101620.75;5032998;28;20046;-78
2022/08/20 00:56:57;;;;;;;13.35;8.25;;;;;;;19.08;97.71;101625.88;5033318;28;20100;-78
2022/08/20 00:59:27;;;;;;;10.63;8.18;;;;;;;19.08;97.21;101626.63;5034549;28;20065;-78
2022/08/20 01:01:53;;;;;;;11.30;8.07;;;;;;;19.08;97.84;101628.56;5032287;28;20049;-76
2022/08/20 01:04:25;;;;;;;10.68;8.05;;;;;;;19.05;97.84;101618.72;5033904;28;20050;-76
2022/08/20 01:06:51;;;;;;;9.40;8.15;;;;;;;19.01;98.19;101613.56;5033199;28;20507;-76
2022/08/20 01:09:18;;;;;;;11.18;8.30;;;;;;;19.01;98.36;101607.41;5032982;28;20057;-76
2022/08/20 01:12:07;;;;;;;10.07;8.35;;;;;;;19.02;98.11;101606.94;5018862;28;20118;-76
2022/08/20 01:17:06;;;;;;;13.75;8.38;;;;;;;19.03;97.58;101621.16;5033631;28;20124;-76
2022/08/20 01:19:48;;;;;;;12.07;8.85;;;;;;;19.07;97.86;101614.34;5032273;28;20050;-76
2022/08/20 01:25:18;;;;;;;13.02;8.40;;;;;;;19.05;98.29;101619.47;5032404;28;20054;-76
2022/08/20 01:27:45;;;;;;;11.57;9.25;;;;;;;19.02;98.90;101622.38;5033706;28;20506;-76
2022/08/20 01:30:18;;;;;;;11.40;8.55;;;;;;;18.98;98.93;101620.63;5032178;28;20127;-77
2022/08/20 01:32:44;;;;;;;13.00;8.90;;;;;;;18.89;98.85;101631.59;5032501;28;20045;-76
2022/08/20 01:35:11;;;;;;;26.83;9.50;;;;;;;18.81;98.94;101622.41;5033408;28;20042;-77
2022/08/20 01:37:38;;;;;;;11.20;7.35;;;;;;;18.72;99.30;101619.91;5032568;28;20100;-76
2022/08/20 01:40:12;;;;;;;9.38;6.05;;;;;;;18.68;99.18;101619.38;5033399;28;20081;-76
2022/08/20 01:42:45;;;;;;;10.00;5.75;;;;;;;18.67;99.47;101623.28;5032091;28;20049;-75
2022/08/20 01:45:26;;;;;;;6.22;5.18;;;;;;;18.64;99.18;101627.66;5032031;28;20073;-76
2022/08/20 01:47:56;;;;;;;6.25;5.65;;;;;;;18.67;99.62;101627.94;5032020;28;20117;-77
2022/08/20 01:50:26;;;;;;;9.85;6.22;;;;;;;18.67;99.82;101625.97;5032873;28;20042;-77
2022/08/20 01:53:23;;;;;;;9.65;6.70;;;;;;;18.67;99.73;101625.97;5033098;28;20042;-77
2022/08/20 01:55:49;;;;;;;12.20;7.38;;;;;;;18.65;99.98;101628.41;5032039;28;20096;-77
2022/08/20 01:58:16;;;;;;;8.48;7.68;;;;;;;18.61;99.96;101630.56;5032089;28;20046;-77
2022/08/20 02:00:42;;;;;;;9.88;7.85;;;;;;;18.60;99.97;101637.91;5031848;28;20053;-77
2022/08/20 02:03:09;;;;;;;10.30;8.07;;;;;;;18.57;99.85;101636.13;5032825;28;20089;-77
2022/08/20 02:05:35;;;;;;;10.35;8.13;;;;;;;18.57;100.00;101630.00;5032240;28;20069;-77
2022/08/20 02:08:04;;;;;;;9.82;8.05;;;;;;;18.57;100.00;101628.03;5033007;28;20499;-77
2022/08/20 02:10:31;;;;;;;12.07;8.10;;;;;;;18.52;99.98;101625.28;5033118;28;20042;-77
2022/08/20 02:12:58;;;;;;;12.55;8.38;;;;;;;18.48;100.00;101622.78;5032525;28;20042;-78
2022/08/20 02:15:25;;;;;;;11.68;8.88;;;;;;;18.48;100.00;101630.13;5031465;28;20514;-78
2022/08/20 02:18:10;;;;;;;11.95;8.20;;;;;;;18.48;100.00;101635.50;5033190;28;20130;-77
2022/08/20 02:20:38;;;;;;;10.13;8.00;;;;;;;18.45;100.00;101631.06;5033062;28;20046;-77
2022/08/20 02:23:06;;;;;;;13.45;8.30;;;;;;;18.45;100.00;101647.25;5048024;28;20049;-77
2022/08/20 02:25:35;;;;;;;13.90;8.00;;;;;;;18.45;100.00;101641.84;5032938;28;20041;-77
2022/08/20 02:28:06;;;;;;;15.35;8.25;;;;;;;18.44;100.00;101643.81;5030599;28;20319;-78
2022/08/20 02:30:36;;;;;;;10.68;7.53;;;;;;;18.43;99.96;101634.22;5031407;28;20058;-78
2022/08/20 02:33:08;;;;;;;8.90;7.63;;;;;;;18.43;100.00;101628.09;5031407;28;20158;-77
2022/08/20 02:35:36;;;;;;;9.35;7.57;;;;;;;18.40;100.00;101637.13;5031213;28;20050;-77
2022/08/20 02:38:03;;;;;;;8.73;7.65;;;;;;;18.37;100.00;101633.44;5031259;28;20053;-77
2022/08/20 02:40:30;;;;;;;9.70;7.13;;;;;;;18.38;100.00;101639.59;5014507;28;20448;-77
2022/08/20 02:43:01;;;;;;;14.90;7.63;;;;;;;18.36;100.00;101647.41;5031928;28;20045;-77
2022/08/20 02:45:30;;;;;;;13.50;7.60;;;;;;;18.33;100.00;101641.75;5031227;28;20053;-77
2022/08/20 02:47:57;;;;;;;13.68;8.05;;;;;;;18.31;100.00;101640.72;5032489;28;20045;-77
2022/08/20 02:50:26;;;;;;;8.02;7.32;;;;;;;18.30;100.00;101639.25;5032492;28;20096;-77
2022/08/20 02:52:53;;;;;;;9.18;7.38;;;;;;;18.27;100.00;101637.47;5030649;28;20100;-77
2022/08/20 02:55:21;;;;;;;9.85;7.60;;;;;;;18.28;100.00;101638.97;5031308;28;20097;-77
2022/08/20 02:57:58;;;;;;;10.73;7.85;;;;;;;18.27;100.00;101629.41;5030779;28;20234;-77
2022/08/20 03:00:30;;;;;;;9.75;7.72;;;;;;;18.26;100.00;101630.59;5031017;28;20045;-77
2022/08/20 03:03:05;;;;;;;9.40;6.82;;;;;;;18.24;100.00;101638.44;5031258;28;20057;-77
2022/08/20 03:05:31;;;;;;;8.20;6.85;;;;;;;18.26;100.00;101638.69;5031423;28;20057;-77
2022/08/20 03:07:58;;;;;;;10.40;7.55;;;;;;;18.23;100.00;101640.38;5032176;28;20494;-77
2022/08/20 03:10:31;;;;;;;11.60;6.93;;;;;;;18.20;100.00;101641.31;5031604;28;20046;-77
2022/08/20 03:12:59;;;;;;;7.80;6.28;;;;;;;18.19;100.00;101639.09;5032162;28;20051;-77
2022/08/20 03:15:26;;;;;;;9.63;7.10;;;;;;;18.15;100.00;101643.94;5030177;28;20581;-77
2022/08/20 03:17:52;;;;;;;10.63;6.88;;;;;;;18.15;100.00;101641.97;5030005;28;20046;-77
2022/08/20 03:20:19;;;;;;;7.72;6.90;;;;;;;18.15;100.00;101652.03;5032449;28;20045;-77
2022/08/20 03:22:50;;;;;;;7.22;6.55;;;;;;;18.14;100.00;101651.28;5032088;28;20100;-77
2022/08/20 03:25:17;;;;;;;10.75;7.53;;;;;;;18.15;100.00;101646.63;5031664;28;20593;-77
2022/08/20 03:27:44;;;;;;;7.72;6.88;;;;;;;18.16;100.00;101642.72;5032373;28;20108;-78
2022/08/20 03:30:14;;;;;;;15.77;7.20;;;;;;;18.16;100.00;101646.16;5030756;28;20049;-77
2022/08/20 03:32:42;;;;;;;8.25;6.55;;;;;;;18.16;100.00;101642.72;5030195;28;20046;-78
2022/08/20 03:35:17;;;;;;;7.65;6.88;;;;;;;18.16;100.00;101651.56;5031895;28;20112;-77
2022/08/20 03:37:45;;;;;;;10.73;6.93;;;;;;;18.15;100.00;101649.31;5032104;28;20536;-77
2022/08/20 03:40:27;;;;;;;9.80;7.03;;;;;;;18.15;100.00;101654.72;5030531;28;20042;-77
2022/08/20 03:42:53;;;;;;;8.00;6.63;;;;;;;18.15;100.00;101650.06;5031974;28;20050;-78
2022/08/20 03:45:22;;;;;;;13.30;6.75;;;;;;;18.14;100.00;101659.34;5032238;28;20102;-78
2022/08/20 03:47:50;;;;;;;7.20;6.43;;;;;;;18.11;100.00;101659.56;5030744;28;20153;-78
2022/08/20 03:50:19;;;;;;;8.50;7.10;;;;;;;18.09;100.00;101668.09;5014385;28;20129;-77
2022/08/20 03:52:50;;;;;;;9.93;7.28;;;;;;;18.07;100.00;101659.75;5031869;28;20037;-77
2022/08/20 03:55:17;;;;;;;6.97;6.35;;;;;;;18.05;100.00;101662.16;5029837;28;20050;-77
2022/08/20 03:57:46;;;;;;;9.02;6.45;;;;;;;18.06;99.92;101660.97;5030043;28;20108;-77
2022/08/20 04:00:16;;;;;;;7.13;6.30;;;;;;;18.03;99.62;101667.28;5031468;28;20050;-77
2022/08/20 04:02:43;;;;;;;7.47;6.17;;;;;;;18.00;100.00;101660.13;5031585;28;20046;-77
2022/08/20 04:05:10;;;;;;;7.65;5.82;;;;;;;17.99;100.00;101653.28;5031066;28;20050;-77
2022/08/20 04:07:36;;;;;;;6.85;6.25;;;;;;;17.96;100.00;101648.84;5031493;28;20077;-77
2022/08/20 04:10:08;;;;;;;10.70;6.55;;;;;;;17.90;99.70;101648.00;5030855;28;20053;-77
2022/08/20 04:12:39;;;;;;;7.40;6.53;;;;;;;17.87;100.00;101659.72;5029894;28;20050;-77
2022/08/20 04:15:18;;;;;;;7.03;6.07;;;;;;;17.86;100.00;101663.63;5030467;28;20054;-77
2022/08/20 04:17:49;;;;;;;7.65;5.88;;;;;;;17.81;99.54;101662.34;5030010;28;20108;-76
2022/08/20 04:20:21;;;;;;;6.97;6.13;;;;;;;17.81;100.00;101659.63;5031977;28;20046;-76
2022/08/20 04:22:52;;;;;;;7.78;6.95;;;;;;;17.78;100.00;101667.91;5029563;28;20050;-76
2022/08/20 04:25:27;;;;;;;7.05;6.55;;;;;;;17.77;100.00;101667.16;5031346;28;20042;-76
2022/08/20 04:27:55;;;;;;;8.07;6.40;;;;;;;17.75;100.00;101663.44;5032906;28;20033;-77
2022/08/20 04:30:24;;;;;;;7.35;6.78;;;;;;;17.75;100.00;101674.22;5034603;28;20052;-77
2022/08/20 04:32:52;;;;;;;8.82;6.40;;;;;;;17.75;100.00;101679.59;5016329;28;20108;-77
2022/08/20 04:35:19;;;;;;;7.43;6.25;;;;;;;17.73;100.00;101685.47;5034601;28;20054;-77
2022/08/20 04:37:47;;;;;;;6.88;6.20;;;;;;;17.69;100.00;101684.91;5033932;28;20054;-77
2022/08/20 04:43:04;;;;;;;6.18;5.68;;;;;;;17.72;100.00;101683.22;5034054;28;20121;-76
2022/08/20 04:45:33;;;;;;;9.68;5.88;;;;;;;17.74;100.00;101695.03;5033761;28;20096;-76
2022/08/20 04:48:05;;;;;;;7.15;6.03;;;;;;;17.74;100.00;101696.97;5032765;28;20045;-76
2022/08/20 04:50:37;;;;;;;6.97;6.38;;;;;;;17.71;100.00;101692.50;5034091;28;20078;-77
2022/08/20 04:53:07;;;;;;;6.72;6.00;;;;;;;17.70;100.00;101696.41;5032065;28;20601;-77
2022/08/20 04:55:37;;;;;;;7.20;6.32;;;;;;;17.66;100.00;101704.69;5033770;28;20053;-77
2022/08/20 04:58:06;;;;;;;6.88;5.63;;;;;;;17.65;100.00;101700.50;5032295;28;20054;-77
2022/08/20 05:00:33;;;;;;;8.98;6.07;;;;;;;17.64;99.74;101704.38;5033818;28;20565;-77
2022/08/20 05:03:00;;;;;;;7.75;5.78;;;;;;;17.63;100.00;101705.56;5016108;28;20053;-77
2022/08/20 05:05:27;;;;;;;8.75;6.30;;;;;;;17.63;99.43;101708.28;5033464;28;20049;-77
2022/08/20 05:07:54;;;;;;;7.25;6.55;;;;;;;17.60;99.78;101706.50;5032329;28;20522;-77
2022/08/20 05:10:22;;;;;;;6.90;6.22;;;;;;;17.60;99.31;101709.19;5032468;28;20054;-77
2022/08/20 05:12:49;;;;;;;7.68;5.95;;;;;;;17.60;99.04;101714.59;5034172;28;20100;-77
2022/08/20 05:15:24;;;;;;;6.78;5.90;;;;;;;17.55;99.39;101716.00;5032671;28;20058;-77
2022/08/20 05:18:01;;;;;;;6.72;6.03;;;;;;;17.53;98.88;101714.97;5032555;28;20049;-77
2022/08/20 05:20:30;;;;;;;7.90;6.45;;;;;;;17.51;99.13;101709.31;5032796;28;20533;-77
2022/08/20 05:22:58;;;;;;;8.30;5.63;;;;;;;17.48;99.14;101707.53;5032991;28;20553;-77
2022/08/20 05:25:29;;;;;;;7.00;6.43;;;;;;;17.46;98.61;101712.66;5032365;28;20054;-77
2022/08/20 05:28:02;;;;;;;6.60;6.03;;;;;;;17.43;98.10;101714.31;5034197;28;20101;-77
2022/08/20 05:30:37;;;;;;;6.65;5.78;;;;;;;17.44;98.47;101715.06;5032438;28;20124;-77
2022/08/20 05:33:06;;;;;;;6.80;6.20;;;;;;;17.39;97.80;101713.75;5032282;28;20042;-77
2022/08/20 05:35:37;;;;;;;7.93;5.80;;;;;;;17.37;98.66;101724.25;5031665;28;20088;-77
2022/08/20 05:38:05;;;;;;;6.10;5.53;;;;;;;17.39;98.81;101726.47;5033842;28;20094;-77
2022/08/20 05:40:31;;;;;;;7.43;6.15;;;;;;;17.67;98.96;101725.00;5015070;28;20054;-77
2022/08/20 05:42:58;;;;;;;6.43;5.82;;;;;;;18.32;96.34;101726.50;5032228;28;20046;-77
2022/08/20 05:45:25;;;;;;;6.38;5.88;;;;;;;18.50;94.54;101732.84;5033571;28;20582;-77
2022/08/20 05:47:51;;;;;;;5.75;5.28;;;;;;;18.47;93.72;101731.09;5031930;28;20120;-77
2022/08/20 05:50:22;;;;;;;6.97;5.32;;;;;;;18.26;94.17;101730.34;5033297;28;20045;-77
2022/08/20 05:52:49;;;;;;;5.47;5.10;;;;;;;18.12;94.00;101733.78;5033619;28;20042;-77
2022/08/20 05:55:15;;;;;;;7.93;5.30;;;;;;;18.09;94.54;101734.72;5032074;28;20046;-77
2022/08/20 05:57:42;;;;;;;6.10;4.90;;;;;;;18.48;94.28;101738.72;5015170;28;20058;-77
2022/08/20 06:00:11;;;;;;;6.15;5.10;;;;;;;20.16;87.31;101738.44;5033448;28;20045;-77
2022/08/20 06:05:24;;;;;;;6.63;5.20;;;;;;;22.39;75.13;101740.84;5032543;28;20108;-78
2022/08/20 06:07:52;;;;;;;6.20;4.10;;;;;;;23.03;72.18;101754.41;5033184;28;20050;-74
2022/08/20 06:10:23;;;;;;;4.10;3.80;;;;;;;23.46;70.06;101744.50;5033233;28;20050;-73
2022/08/20 06:12:51;;;;;;;7.47;3.85;;;;;;;23.57;68.18;101749.88;5033056;28;20076;-73
2022/08/20 06:15:19;;;;;;;5.25;3.88;;;;;;;23.77;68.31;101751.44;5031985;28;20486;-73
2022/08/20 06:17:49;;;;;;;3.90;3.60;;;;;;;23.65;68.36;101760.19;5033269;28;20556;-72
2022/08/20 06:20:24;;;;;;;3.38;3.08;;;;;;;23.63;67.58;101755.25;5032960;28;20112;-72
2022/08/20 06:22:51;;;;;;;4.70;3.10;;;;;;;23.36;68.13;101754.19;5033080;28;20041;-72
2022/08/20 06:25:18;;;;;;;7.28;3.55;;;;;;;23.15;69.01;101753.88;5033271;28;20070;-72
2022/08/20 06:27:44;;;;;;;6.53;3.25;;;;;;;23.04;69.62;101750.47;5032978;28;20116;-72
2022/08/20 06:30:13;;;;;;;7.68;2.97;;;;;;;22.84;69.60;101749.56;5032902;28;20046;-73
2022/08/20 06:32:39;;;;;;;4.93;2.80;;;;;;;22.49;71.29;101747.47;5031353;28;20069;-73
2022/08/20 06:35:08;;;;;;;9.57;3.30;;;;;;;22.32;71.14;101756.91;5030793;28;20049;-73
2022/08/20 06:37:38;;;;;;;7.25;3.40;;;;;;;22.13;72.75;101753.97;5032751;28;20050;-74
2022/08/20 06:40:09;;;;;;;8.88;3.20;;;;;;;21.98;73.95;101751.53;5032261;28;20042;-73
2022/08/20 06:42:42;;;;;;;7.53;2.97;;;;;;;21.92;73.33;101756.19;5031040;28;20446;-72
2022/08/20 06:45:19;;;;;;;3.88;2.72;;;;;;;21.81;73.40;101751.53;5032893;28;20074;-72
2022/08/20 06:47:46;;;;;;;6.13;3.03;;;;;;;21.71;73.35;101746.84;5032377;28;20042;-72
2022/08/20 06:50:17;;;;;;;7.20;2.95;;;;;;;21.59;74.51;101751.53;5032311;28;20049;-72
2022/08/20 06:52:45;;;;;;;7.47;2.60;;;;;;;21.53;71.44;101756.94;5032323;28;20046;-72
2022/08/20 06:55:19;;;;;;;6.03;3.03;;;;;;;21.42;73.66;101761.59;5032694;28;20515;-72
2022/08/20 06:57:47;;;;;;;7.28;2.75;;;;;;;21.47;73.37;101761.63;5032384;28;20055;-72
2022/08/20 07:00:17;;;;;;;8.23;2.83;;;;;;;21.44;74.53;101756.44;5032658;28;20100;-73
2022/08/20 07:02:46;;;;;;;7.20;2.77;;;;;;;21.45;71.76;101758.66;5031692;28;20045;-73
2022/08/20 07:05:14;;;;;;;10.60;3.00;;;;;;;21.37;73.74;101765.03;5032050;28;20498;-73
2022/08/20 07:07:49;;;;;;;8.27;2.92;;;;;;;21.34;72.59;101768.72;5032085;28;20054;-73
2022/08/20 07:10:17;;;;;;;5.68;2.65;;;;;;;21.24;74.11;101768.22;5032912;28;20046;-71
2022/08/20 07:12:45;;;;;;;7.82;2.97;;;;;;;21.41;73.38;101762.84;5032205;28;20046;-73
2022/08/20 07:15:13;;;;;;;4.05;2.42;;;;;;;21.42;73.84;101764.31;5032040;28;20050;-73
2022/08/20 07:17:40;;;;;;;5.07;2.95;;;;;;;21.37;73.09;101768.50;5029944;28;20726;-73
2022/08/20 07:20:09;;;;;;;8.63;2.67;;;;;;;21.38;71.51;101766.53;5030511;28;20049;-74
2022/08/20 07:22:36;;;;;;;3.72;2.20;;;;;;;21.44;71.52;101772.69;5031785;28;20042;-73
2022/08/20 07:25:05;;;;;;;7.13;2.50;;;;;;;21.51;73.22;101778.38;5031812;28;20046;-74
2022/08/20 07:27:32;;;;;;;7.13;2.85;;;;;;;21.53;71.45;101775.91;5030319;28;20045;-74
2022/08/20 07:32:46;;;;;;;6.22;2.45;;;;;;;21.73;70.35;101776.88;5031788;28;20082;-73
2022/08/20 07:35:16;;;;;;;5.43;2.40;;;;;;;21.74;70.53;101775.66;5031695;28;20101;-73
2022/08/20 07:37:47;;;;;;;6.38;2.50;;;;;;;21.74;71.59;101783.78;5031367;28;20104;-74
2022/08/20 07:40:20;;;;;;;11.18;3.03;;;;;;;21.81;69.96;101783.31;5031154;28;20121;-73
2022/08/20 07:42:53;;;;;;;4.63;2.25;;;;;;;21.94;69.35;101778.13;5031722;28;20478;-73
2022/08/20 07:45:20;;;;;;;7.65;2.30;;;;;;;21.94;68.20;101788.97;5030710;28;20057;-75
2022/08/20 07:47:48;;;;;;;5.68;2.38;;;;;;;21.89;65.05;101790.47;5030035;28;20141;-73
2022/08/20 07:50:18;;;;;;;7.82;2.38;;;;;;;22.12;66.92;101793.91;5031936;28;20045;-73
2022/08/20 07:52:45;;;;;;;6.53;2.40;;;;;;;22.37;66.19;101796.84;5031372;28;20315;-74
2022/08/20 07:55:14;;;;;;;9.63;2.45;;;;;;;22.33;64.31;101801.78;5031364;28;20104;-73
2022/08/20 07:57:42;;;;;;;9.70;2.67;;;;;;;22.45;67.40;101801.25;5031347;28;20050;-73
2022/08/20 08:00:10;;;;;;;4.90;2.20;;;;;;;22.68;60.26;101796.50;5029778;28;20042;-74
2022/08/20 08:02:38;;;;;;;5.72;1.77;;;;;;;22.79;60.03;101798.47;5032204;28;20050;-72
2022/08/20 08:05:06;;;;;;;9.23;2.00;;;;;;;22.91;58.98;101805.31;5034946;28;20053;-74
2022/08/20 08:07:34;;;;;;;7.78;2.25;;;;;;;22.93;59.81;101802.84;5034308;28;20483;-73
2022/08/20 08:10:05;;;;;;;7.77;2.27;;;;;;;23.03;58.71;101803.28;5047535;28;20049;-73
2022/08/20 08:12:37;;;;;;;5.38;1.83;;;;;;;23.02;57.89;101808.00;5029924;28;20050;-74
2022/08/20 08:15:08;;;;;;;8.10;2.33;;;;;;;22.95;58.30;101803.81;5014638;28;20042;-71
2022/08/20 08:17:36;;;;;;;6.97;2.33;;;;;;;22.81;59.89;101809.53;5015047;28;20050;-75
2022/08/20 08:20:04;;;;;;;8.05;1.92;;;;;;;22.73;59.30;101809.31;5014592;28;20046;-73
2022/08/20 08:22:31;;;;;;;7.30;1.98;;;;;;;22.77;60.54;101804.38;5014807;28;20046;-74
2022/08/20 08:25:01;;;;;;;8.05;2.00;;;;;;;22.87;61.12;101810.25;5014736;28;20054;-74
2022/08/20 08:27:31;;;;;;;7.93;1.90;;;;;;;23.08;57.68;101807.97;5014809;28;20128;-74
2022/08/20 08:29:59;;;;;;;7.25;2.00;;;;;;;23.32;56.81;101810.03;5014387;28;20042;-78
2022/08/20 08:32:26;;;;;;;7.28;1.92;;;;;;;23.36;57.58;101810.53;5014487;28;20047;-75
2022/08/20 08:34:53;;;;;;;7.38;2.22;;;;;;;23.59;58.69;101818.03;5014437;28;20194;-74
2022/08/20 08:37:19;;;;;;;7.43;2.38;;;;;;;23.55;57.15;101819.56;5014817;28;20446;-74
2022/08/20 08:39:46;;;;;;;4.57;1.88;;;;;;;23.67;55.80;101812.81;5013653;28;20226;-73
2022/08/20 08:42:44;;;;;;;6.38;1.90;;;;;;;23.89;56.84;101814.63;5014436;28;20101;-73
2022/08/20 08:45:15;;;;;;;6.05;1.77;;;;;;;23.90;56.21;101821.53;5020891;28;20055;-73
2022/08/20 08:47:43;;;;;;;4.68;1.65;;;;;;;23.94;58.32;101816.56;5012453;28;20485;-73
2022/08/20 08:50:21;;;;;;;6.05;1.90;;;;;;;23.98;55.63;101824.44;5014434;28;20046;-74
2022/08/20 08:53:14;;;;;;;8.45;2.20;;;;;;;23.87;57.70;101822.56;5014530;28;20054;-74
2022/08/20 08:55:41;;;;;;;4.78;2.10;;;;;;;23.75;56.24;101823.88;5014358;28;20051;-74
2022/08/20 08:58:09;;;;;;;5.15;1.98;;;;;;;23.70;55.73;101825.38;5013883;28;20046;-74
2022/08/20 09:00:44;;;;;;;6.97;2.30;;;;;;;23.69;52.54;101832.06;5014502;28;20081;-74
2022/08/20 09:03:28;;;;;;;5.13;2.03;;;;;;;23.73;54.87;101829.81;5012982;28;20050;-74
2022/08/20 09:06:00;;;;;;;5.60;2.00;;;;;;;23.69;53.84;101831.31;5013597;28;20059;-74
2022/08/20 09:08:56;;;;;;;3.75;1.95;;;;;;;23.68;53.29;101832.56;5012996;28;20046;-74
2022/08/20 09:11:24;;;;;;;5.13;1.83;;;;;;;23.77;55.91;101826.81;5013884;28;20047;-73
2022/08/20 09:13:53;;;;;;;4.10;1.90;;;;;;;23.84;53.16;101820.84;5012373;28;20113;-73
2022/08/20 09:16:21;;;;;;;8.27;2.10;;;;;;;24.03;53.83;101835.25;5014218;28;20050;-73
2022/08/20 09:18:48;;;;;;;8.57;2.35;;;;;;;24.18;52.39;101832.91;5014066;28;20058;-73
2022/08/20 09:21:16;;;;;;;7.90;2.17;;;;;;;24.30;54.13;101833.56;5014455;28;20105;-73
2022/08/20 09:23:43;;;;;;;4.45;1.88;;;;;;;24.34;52.62;101833.28;5013971;28;20042;-73
2022/08/20 09:26:09;;;;;;;6.78;1.75;;;;;;;24.30;48.92;101833.56;5013924;28;20058;-73
2022/08/20 09:28:36;;;;;;;3.63;1.85;;;;;;;24.29;50.67;101834.09;5013542;28;20046;-73
2022/08/20 09:31:03;;;;;;;7.30;2.00;;;;;;;24.50;50.42;101824.94;5013598;28;20050;-75
2022/08/20 09:33:31;;;;;;;6.68;1.95;;;;;;;24.59;47.78;101823.84;5013787;28;20047;-75
2022/08/20 09:35:58;;;;;;;3.38;1.63;;;;;;;24.63;49.13;101829.03;5013706;28;20054;-78
2022/08/20 09:38:24;;;;;;;5.53;2.17;;;;;;;24.58;46.58;101828.56;5013718;28;20553;-78
2022/08/20 09:40:51;;;;;;;5.18;1.73;;;;;;;24.60;44.79;101830.78;5012328;28;20494;-78
2022/08/20 09:43:17;;;;;;;6.68;2.05;;;;;;;24.45;44.25;101825.00;5011819;28;20459;-78
2022/08/20 09:45:44;;;;;;;9.52;3.35;;;;;;;24.74;44.35;101823.47;5013809;28;20129;-78
2022/08/20 09:48:10;;;;;;;5.57;1.98;;;;;;;24.87;43.99;101832.44;5012345;28;20054;-78
2022/08/20 09:50:42;;;;;;;4.97;1.80;;;;;;;24.88;43.20;101830.44;5013615;28;20042;-78
2022/08/20 09:53:09;;;;;;;5.00;1.80;;;;;;;24.94;44.51;101826.41;5012306;28;20474;-78
2022/08/20 09:55:39;;;;;;;5.55;1.88;;;;;;;25.00;45.02;101826.38;5013511;28;20050;-75
2022/08/20 09:58:20;;;;;;;3.25;1.90;;;;;;;25.06;44.50;101821.59;5011545;28;20050;-74
2022/08/20 10:00:47;;;;;;;6.38;1.60;;;;;;;25.18;42.24;101822.19;5012404;28;20101;-73
2022/08/20 10:03:14;;;;;;;4.88;1.67;;;;;;;25.31;40.79;101821.50;5012210;28;20058;-74
2022/08/20 10:05:41;;;;;;;7.40;1.75;;;;;;;25.42;41.96;101818.63;5012822;28;20105;-74
2022/08/20 10:08:10;;;;;;;4.03;1.60;;;;;;;25.44;42.34;101821.56;5013424;28;20109;-74
2022/08/20 10:10:36;;;;;;;8.38;1.50;;;;;;;25.46;39.71;101830.69;5012708;28;20042;-74
2022/08/20 10:13:03;;;;;;;7.13;2.08;;;;;;;25.43;37.83;101831.72;5013243;28;20050;-72
2022/08/20 10:15:30;;;;;;;4.32;2.25;;;;;;;25.39;41.07;101823.13;5011469;28;20046;-74
2022/08/20 10:17:57;;;;;;;5.22;1.60;;;;;;;25.36;38.29;101826.13;5012989;28;20051;-73
2022/08/20 10:20:24;;;;;;;4.93;1.80;;;;;;;25.37;41.41;101822.16;5013226;28;20094;-75
2022/08/20 10:22:51;;;;;;;4.50;1.58;;;;;;;25.56;42.17;101817.44;5012895;28;20042;-72
2022/08/20 10:25:18;;;;;;;6.30;1.90;;;;;;;25.58;41.24;101821.09;5012501;28;20050;-74
2022/08/20 10:27:44;;;;;;;5.22;2.05;;;;;;;25.63;38.92;101816.78;5013151;28;20046;-74
2022/08/20 10:30:11;;;;;;;3.97;1.92;;;;;;;25.73;39.76;101828.81;5011685;28;20051;-73
2022/08/20 10:32:38;;;;;;;4.72;2.17;;;;;;;25.94;39.19;101828.25;5013068;28;20058;-73
2022/08/20 10:35:05;;;;;;;5.28;1.88;;;;;;;25.98;39.15;101831.41;5013101;28;20530;-73
2022/08/20 10:37:33;;;;;;;8.23;2.00;;;;;;;26.08;38.88;101827.00;5012172;28;20093;-73
2022/08/20 10:40:00;;;;;;;4.47;2.05;;;;;;;26.12;39.16;101825.44;5011490;28;20050;-73
2022/08/20 10:42:26;;;;;;;6.68;2.05;;;;;;;26.22;40.57;101829.22;5012196;28;20043;-74
2022/08/20 10:44:52;;;;;;;6.32;1.95;;;;;;;26.09;38.58;101831.19;5012644;28;20097;-73
2022/08/20 10:47:20;;;;;;;4.05;2.20;;;;;;;25.73;38.56;101828.09;5013170;28;20129;-72
2022/08/20 10:49:53;;;;;;;5.22;2.25;;;;;;;25.21;40.26;101827.31;5012965;28;20050;-74
2022/08/20 10:52:21;;;;;;;4.60;2.35;;;;;;;25.37;40.54;101825.63;5012826;28;20137;-73
2022/08/20 10:54:48;;;;;;;5.78;2.08;;;;;;;25.90;40.50;101831.28;5012371;28;20038;-75
2022/08/20 10:57:23;;;;;;;10.00;2.33;;;;;;;26.16;38.17;101827.84;5012933;28;20054;-73
2022/08/20 10:59:51;;;;;;;6.13;2.05;;;;;;;26.00;39.06;101818.69;5011092;28;20057;-73
2022/08/20 11:02:19;;;;;;;5.30;2.20;;;;;;;25.84;38.98;101819.72;5011217;28;20940;-75
2022/08/20 11:04:47;;;;;;;8.95;2.60;;;;;;;25.93;40.34;101819.34;5012688;28;20038;-75
2022/08/20 11:07:32;;;;;;;5.53;1.80;;;;;;;26.23;40.79;101827.97;5012030;28;20518;-75
2022/08/20 11:10:18;;;;;;;4.50;2.10;;;;;;;25.56;39.59;101822.88;5012517;28;20129;-75
2022/08/20 11:12:45;;;;;;;5.95;2.22;;;;;;;25.28;39.82;101815.09;5012569;28;20053;-75
2022/08/20 11:15:13;;;;;;;5.70;2.30;;;;;;;25.49;40.51;101826.94;5012131;28;20121;-75
2022/08/20 11:17:41;;;;;;;7.38;2.40;;;;;;;25.32;40.94;101820.25;5012180;28;20088;-75
2022/08/20 11:20:09;;;;;;;7.30;1.90;;;;;;;25.12;42.18;101821.53;5010694;28;20582;-75
2022/08/20 11:22:36;;;;;;;8.60;2.25;;;;;;;25.14;39.93;101822.47;5010776;28;20113;-75
2022/08/20 11:25:05;;;;;;;6.90;2.15;;;;;;;24.92;40.64;101826.19;5011596;28;20589;-75
2022/08/20 11:27:35;;;;;;;6.22;2.20;;;;;;;24.65;40.98;101824.53;5011872;28;20186;-75
2022/08/20 11:30:07;;;;;;;4.85;2.42;;;;;;;24.50;43.47;101826.94;5012142;28;20042;-75
2022/08/20 11:32:34;;;;;;;5.72;1.90;;;;;;;24.67;41.57;101832.94;5011944;28;20481;-75
2022/08/20 11:35:01;;;;;;;6.30;2.30;;;;;;;24.83;41.25;101826.53;5010574;28;20057;-75
2022/08/20 11:37:52;;;;;;;6.13;2.15;;;;;;;25.32;42.85;101822.97;5011062;28;20123;-74
2022/08/20 11:40:19;;;;;;;5.10;2.28;;;;;;;25.62;38.50;101820.78;5012670;28;20047;-74
2022/08/20 11:42:46;;;;;;;9.50;1.90;;;;;;;25.73;37.95;101819.91;5012321;28;20051;-74
2022/08/20 11:45:32;;;;;;;6.07;1.77;;;;;;;25.67;39.23;101827.44;5012065;28;20581;-74
2022/08/20 11:48:06;;;;;;;6.30;2.33;;;;;;;25.71;38.69;101825.13;5012054;28;20050;-74